Time;durP1;ratioP1;P1;durP2;ratioP2;P2;SDS_P1;SDS_P2;PMS_P1;PMS_P2;Temp;Humidity;BMP_temperature;BMP_pressure;BME280_temperature;BME280_humidity;BME280_pressure;Samples;Min_cycle;Max_cycle;Signal;HPM_P1;HPM_P2
2022/09/16 00:00:51;;;;;;;16.17;10.57;;;13.50;99.90;;;;;;4992362;28;20057;-71
2022/09/16 00:03:19;;;;;;;16.45;10.65;;;13.50;99.90;;;;;;4987438;28;20610;-71
2022/09/16 00:05:50;;;;;;;17.70;10.52;;;13.60;99.90;;;;;;4993517;28;20073;-70
2022/09/16 00:08:18;;;;;;;18.15;11.30;;;13.60;99.90;;;;;;4993893;28;20133;-70
2022/09/16 00:10:46;;;;;;;16.60;11.45;;;13.60;99.90;;;;;;4992612;28;20419;-71
2022/09/16 00:13:13;;;;;;;16.23;10.32;;;13.70;99.90;;;;;;4993443;28;20060;-71
2022/09/16 00:15:43;;;;;;;16.70;9.35;;;13.70;99.90;;;;;;4992418;28;20057;-71
2022/09/16 00:18:11;;;;;;;14.25;9.73;;;13.70;99.90;;;;;;4993644;28;20510;-71
2022/09/16 00:20:44;;;;;;;15.77;9.50;;;13.70;99.90;;;;;;4990268;28;20488;-70
2022/09/16 00:23:11;;;;;;;14.20;9.23;;;13.70;99.90;;;;;;4993487;28;20496;-71
2022/09/16 00:25:39;;;;;;;14.82;9.40;;;13.70;99.90;;;;;;4992048;28;20416;-71
2022/09/16 00:28:06;;;;;;;15.35;8.95;;;13.70;99.90;;;;;;5008609;28;20038;-70
2022/09/16 00:30:34;;;;;;;13.77;8.85;;;13.70;99.90;;;;;;4993155;28;20117;-71
2022/09/16 00:33:01;;;;;;;16.77;9.77;;;13.70;99.90;;;;;;5008793;28;20373;-71
2022/09/16 00:35:28;;;;;;;15.48;9.15;;;13.80;99.90;;;;;;4992141;28;20530;-71
2022/09/16 00:37:56;;;;;;;13.98;8.52;;;13.70;99.90;;;;;;5007983;28;20051;-71
2022/09/16 00:40:23;;;;;;;11.35;7.53;;;13.70;99.90;;;;;;4992195;28;20082;-71
2022/09/16 00:42:50;;;;;;;11.80;8.32;;;13.70;99.90;;;;;;4993227;28;20093;-71
2022/09/16 00:45:24;;;;;;;12.50;7.97;;;13.70;99.90;;;;;;4992524;28;20038;-70
2022/09/16 00:47:58;;;;;;;10.90;8.38;;;13.70;99.90;;;;;;5005345;28;20042;-70
2022/09/16 00:50:37;;;;;;;13.30;8.93;;;13.70;99.90;;;;;;4980355;28;20045;-70
2022/09/16 00:53:08;;;;;;;15.23;8.40;;;13.70;99.90;;;;;;4990600;28;20046;-71
2022/09/16 00:55:37;;;;;;;11.93;8.50;;;13.70;99.90;;;;;;4983716;28;20072;-70
2022/09/16 00:58:18;;;;;;;12.32;7.78;;;13.60;99.90;;;;;;4988025;28;20049;-70
2022/09/16 01:00:46;;;;;;;11.55;7.53;;;13.60;99.90;;;;;;4992233;28;20385;-70
2022/09/16 01:03:13;;;;;;;12.57;7.93;;;13.50;99.90;;;;;;4986573;28;20426;-70
2022/09/16 01:05:41;;;;;;;12.75;7.47;;;13.50;99.90;;;;;;4987279;28;20051;-70
2022/09/16 01:08:08;;;;;;;12.23;7.95;;;13.50;99.90;;;;;;4987079;28;20566;-70
2022/09/16 01:10:36;;;;;;;11.07;7.80;;;13.40;99.90;;;;;;4988909;28;20054;-70
2022/09/16 01:13:07;;;;;;;10.73;7.93;;;13.50;99.90;;;;;;4991926;28;20369;-70
2022/09/16 01:15:49;;;;;;;13.27;7.57;;;13.50;99.90;;;;;;4992374;28;20496;-70
2022/09/16 01:18:30;;;;;;;12.77;7.75;;;13.40;99.90;;;;;;4992733;28;20046;-70
2022/09/16 01:21:21;;;;;;;11.90;7.80;;;13.40;99.90;;;;;;4987400;28;20412;-70
2022/09/16 01:24:15;;;;;;;11.93;7.50;;;13.40;99.90;;;;;;4991221;28;20046;-70
2022/09/16 01:27:30;;;;;;;10.95;7.25;;;13.40;99.90;;;;;;4974863;28;20034;-70
2022/09/16 01:30:15;;;;;;;12.30;7.22;;;13.40;99.90;;;;;;4976854;28;20043;-70
2022/09/16 01:33:21;;;;;;;11.90;7.85;;;13.40;99.90;;;;;;4990929;28;20050;-70
2022/09/16 01:36:10;;;;;;;11.75;7.13;;;13.30;99.90;;;;;;4937840;28;20138;-70
2022/09/16 01:39:07;;;;;;;11.02;6.97;;;13.30;99.90;;;;;;4989251;28;20567;-70
2022/09/16 01:41:52;;;;;;;11.48;6.72;;;13.30;99.90;;;;;;4990087;28;20034;-70
2022/09/16 01:44:41;;;;;;;10.90;6.90;;;13.30;99.90;;;;;;4981532;28;20162;-70
2022/09/16 01:47:17;;;;;;;14.57;6.63;;;13.30;99.90;;;;;;4988103;28;20049;-70
2022/09/16 01:50:15;;;;;;;16.23;7.00;;;13.30;99.90;;;;;;5000614;28;20050;-70
2022/09/16 01:53:26;;;;;;;10.07;6.55;;;13.30;99.90;;;;;;4974908;28;20473;-70
2022/09/16 01:56:21;;;;;;;12.93;6.82;;;13.30;99.90;;;;;;4928871;29;20063;-70
2022/09/16 01:59:24;;;;;;;11.63;6.53;;;13.40;99.90;;;;;;4913925;29;20071;-70
2022/09/16 02:01:58;;;;;;;9.43;6.55;;;13.30;99.90;;;;;;4931520;29;20058;-70
2022/09/16 02:04:48;;;;;;;11.15;6.25;;;13.30;99.90;;;;;;4931508;29;20048;-70
2022/09/16 02:07:31;;;;;;;13.27;7.10;;;13.30;99.90;;;;;;4935946;29;20360;-70
2022/09/16 02:10:09;;;;;;;11.32;6.65;;;13.30;99.90;;;;;;4921602;29;20056;-70
2022/09/16 02:12:41;;;;;;;8.73;5.93;;;13.30;99.90;;;;;;4930709;29;20056;-70
2022/09/16 02:15:17;;;;;;;10.20;6.32;;;13.30;99.90;;;;;;4940896;29;20206;-70
2022/09/16 02:17:50;;;;;;;11.45;6.10;;;13.30;99.90;;;;;;4932622;29;20530;-70
2022/09/16 02:20:23;;;;;;;11.77;6.63;;;13.30;99.90;;;;;;4934403;29;20136;-70
2022/09/16 02:22:58;;;;;;;9.30;6.43;;;13.30;99.90;;;;;;4938094;29;20051;-70
2022/09/16 02:25:27;;;;;;;11.60;5.97;;;13.30;99.90;;;;;;4935409;29;20062;-70
2022/09/16 02:27:56;;;;;;;10.90;6.82;;;13.30;99.90;;;;;;4926150;29;20051;-70
2022/09/16 02:30:23;;;;;;;10.57;7.00;;;13.30;99.90;;;;;;4971743;28;20101;-70
2022/09/16 02:32:57;;;;;;;9.55;6.53;;;13.20;99.90;;;;;;4986729;28;20112;-70
2022/09/16 02:35:27;;;;;;;11.57;6.25;;;13.30;99.90;;;;;;4990002;28;20539;-70
2022/09/16 02:38:05;;;;;;;11.88;6.70;;;13.30;99.90;;;;;;4990707;28;20038;-70
2022/09/16 02:41:03;;;;;;;13.52;7.13;;;13.30;99.90;;;;;;4990404;28;20050;-70
2022/09/16 02:43:31;;;;;;;8.77;6.43;;;13.30;99.90;;;;;;4973485;28;20080;-70
2022/09/16 02:46:16;;;;;;;12.93;6.93;;;13.30;99.90;;;;;;4989916;28;20488;-70
2022/09/16 02:48:44;;;;;;;10.23;7.47;;;13.30;99.90;;;;;;4973454;28;20038;-70
2022/09/16 02:51:51;;;;;;;12.52;7.20;;;13.30;99.90;;;;;;4989627;28;20089;-70
2022/09/16 02:54:24;;;;;;;10.98;6.68;;;13.20;99.90;;;;;;4924772;29;20150;-70
2022/09/16 02:56:54;;;;;;;10.48;6.82;;;13.20;99.90;;;;;;4932595;29;20097;-70
2022/09/16 02:59:22;;;;;;;10.07;6.40;;;13.20;99.90;;;;;;4923652;29;20051;-70
2022/09/16 03:01:50;;;;;;;11.27;6.70;;;13.20;99.90;;;;;;4935749;29;20059;-70
2022/09/16 03:04:19;;;;;;;9.13;6.15;;;13.20;99.90;;;;;;4919138;29;20044;-70
2022/09/16 03:06:47;;;;;;;7.75;5.53;;;13.20;99.90;;;;;;4931729;29;20166;-70
2022/09/16 03:09:17;;;;;;;11.90;5.97;;;13.20;99.90;;;;;;4937239;29;20493;-70
2022/09/16 03:12:01;;;;;;;9.77;6.00;;;13.10;99.90;;;;;;4919019;29;20048;-70
2022/09/16 03:14:44;;;;;;;11.05;6.25;;;13.10;99.90;;;;;;4933122;29;20036;-70
2022/09/16 03:17:21;;;;;;;11.95;6.10;;;13.10;99.90;;;;;;4934700;29;20074;-70
2022/09/16 03:19:57;;;;;;;10.70;6.05;;;13.20;99.90;;;;;;4923898;29;20051;-70
2022/09/16 03:22:54;;;;;;;9.23;5.72;;;13.10;99.90;;;;;;4937280;29;20050;-70
2022/09/16 03:25:35;;;;;;;10.82;5.90;;;13.10;99.90;;;;;;4933854;29;20173;-70
2022/09/16 03:28:42;;;;;;;11.93;5.93;;;13.10;99.90;;;;;;4939036;28;20109;-69
2022/09/16 03:31:17;;;;;;;12.98;6.30;;;13.10;99.90;;;;;;4986641;28;20109;-70
2022/09/16 03:33:53;;;;;;;7.60;5.40;;;13.10;99.90;;;;;;4988333;28;20161;-70
2022/09/16 03:36:26;;;;;;;13.07;5.75;;;13.10;99.90;;;;;;4987107;28;20054;-70
2022/09/16 03:38:56;;;;;;;9.15;5.20;;;13.10;99.90;;;;;;4988109;28;20056;-70
2022/09/16 03:41:24;;;;;;;9.98;5.20;;;13.00;99.90;;;;;;4989253;28;20042;-70
2022/09/16 03:43:52;;;;;;;8.27;5.28;;;13.00;99.90;;;;;;4988856;28;20492;-70
2022/09/16 03:46:20;;;;;;;10.38;5.40;;;13.00;99.90;;;;;;4990043;28;20034;-70
2022/09/16 03:48:48;;;;;;;10.93;5.13;;;13.00;99.90;;;;;;4989853;28;20053;-70
2022/09/16 03:51:15;;;;;;;9.48;5.78;;;13.00;99.90;;;;;;4978111;28;20493;-70
2022/09/16 03:53:43;;;;;;;10.73;5.25;;;13.00;99.90;;;;;;4953965;28;20524;-69
2022/09/16 03:56:10;;;;;;;11.38;5.55;;;13.00;99.90;;;;;;4983880;28;20051;-70
2022/09/16 03:58:38;;;;;;;9.10;5.07;;;13.00;99.90;;;;;;4986803;28;20504;-70
2022/09/16 04:01:05;;;;;;;10.13;5.22;;;13.00;99.90;;;;;;4989329;28;20047;-70
2022/09/16 04:03:35;;;;;;;9.38;5.40;;;13.00;99.90;;;;;;4990048;28;20057;-70
2022/09/16 04:06:03;;;;;;;15.02;6.28;;;12.90;99.90;;;;;;4989118;28;20046;-70
2022/09/16 04:08:30;;;;;;;11.25;6.00;;;12.90;99.90;;;;;;4984389;28;20457;-70
2022/09/16 04:11:06;;;;;;;8.57;5.60;;;13.00;99.90;;;;;;5003906;28;20065;-70
2022/09/16 04:13:35;;;;;;;10.48;5.75;;;13.00;99.90;;;;;;4990089;28;20065;-71
2022/09/16 04:16:04;;;;;;;8.45;5.95;;;13.00;99.90;;;;;;4989211;28;20058;-70
2022/09/16 04:18:32;;;;;;;12.55;6.28;;;12.90;99.90;;;;;;4986487;28;20038;-70
2022/09/16 04:21:01;;;;;;;11.50;6.10;;;12.90;99.90;;;;;;4990509;28;20080;-70
2022/09/16 04:23:30;;;;;;;14.68;6.25;;;12.90;99.90;;;;;;5006896;28;20351;-70
2022/09/16 04:25:59;;;;;;;10.75;5.45;;;12.90;99.90;;;;;;4987497;28;20130;-70
2022/09/16 04:28:27;;;;;;;14.57;6.22;;;12.90;99.90;;;;;;4992859;28;20526;-70
2022/09/16 04:30:58;;;;;;;9.77;5.93;;;12.90;99.90;;;;;;4993528;28;20046;-70
2022/09/16 04:33:28;;;;;;;11.33;5.53;;;13.00;99.90;;;;;;4990633;28;20140;-70
2022/09/16 04:36:04;;;;;;;12.70;5.97;;;13.00;99.90;;;;;;4991064;28;20050;-70
2022/09/16 04:38:32;;;;;;;10.10;5.60;;;12.90;99.90;;;;;;4992216;28;20496;-70
2022/09/16 04:41:07;;;;;;;10.23;6.25;;;12.90;99.90;;;;;;4991533;28;20142;-69
2022/09/16 04:43:35;;;;;;;11.10;5.53;;;12.90;99.90;;;;;;4990775;28;20046;-70
2022/09/16 04:46:03;;;;;;;8.98;5.93;;;13.00;99.90;;;;;;4992717;28;20042;-69
2022/09/16 04:48:31;;;;;;;12.30;5.85;;;12.90;99.90;;;;;;4993168;28;20045;-70
2022/09/16 04:51:05;;;;;;;8.02;5.93;;;12.90;99.90;;;;;;4992694;28;20475;-69
2022/09/16 04:53:32;;;;;;;8.75;5.20;;;12.90;99.90;;;;;;4991170;28;20038;-69
2022/09/16 04:56:15;;;;;;;9.63;5.53;;;12.90;99.90;;;;;;4987621;28;20058;-69
2022/09/16 04:58:44;;;;;;;11.05;5.32;;;12.80;99.90;;;;;;4990655;28;20050;-70
2022/09/16 05:01:23;;;;;;;10.50;6.90;;;12.80;99.90;;;;;;4990496;28;20045;-69
2022/09/16 05:03:53;;;;;;;11.55;5.15;;;12.80;99.90;;;;;;4992360;28;20437;-69
2022/09/16 05:06:23;;;;;;;9.75;5.88;;;12.80;99.90;;;;;;4992322;28;20507;-70
2022/09/16 05:08:52;;;;;;;9.00;5.43;;;12.80;99.90;;;;;;4991179;28;20045;-71
2022/09/16 05:11:21;;;;;;;10.90;5.82;;;12.80;99.90;;;;;;4992601;28;20034;-71
2022/09/16 05:13:49;;;;;;;10.05;5.50;;;12.90;99.90;;;;;;4984658;28;20059;-69
2022/09/16 05:16:19;;;;;;;8.70;5.18;;;12.90;99.90;;;;;;4989588;28;20538;-69
2022/09/16 05:18:49;;;;;;;11.15;5.57;;;12.90;99.90;;;;;;4988275;28;20073;-69
2022/09/16 05:21:18;;;;;;;10.82;5.57;;;12.90;99.90;;;;;;4988924;28;20043;-69
2022/09/16 05:23:46;;;;;;;9.05;5.50;;;13.00;99.90;;;;;;5012220;28;20370;-69
2022/09/16 05:26:17;;;;;;;14.10;5.70;;;13.00;99.90;;;;;;4990636;28;20034;-69
2022/09/16 05:28:45;;;;;;;14.43;6.35;;;12.90;99.90;;;;;;4992705;28;20038;-69
2022/09/16 05:31:16;;;;;;;10.70;5.35;;;12.90;99.90;;;;;;5006399;28;20464;-70
2022/09/16 05:33:46;;;;;;;8.93;5.03;;;13.00;99.90;;;;;;4992155;28;20058;-69
2022/09/16 05:36:15;;;;;;;9.65;5.63;;;13.00;99.90;;;;;;4974869;28;20046;-71
2022/09/16 05:38:43;;;;;;;10.48;5.13;;;13.00;99.90;;;;;;5004950;28;20050;-70
2022/09/16 05:41:31;;;;;;;12.75;4.63;;;13.00;99.90;;;;;;4989391;28;20038;-72
2022/09/16 05:43:59;;;;;;;11.05;5.57;;;13.00;99.90;;;;;;4975319;28;20042;-72
2022/09/16 05:46:27;;;;;;;9.32;4.80;;;12.90;99.90;;;;;;4990774;28;20046;-72
2022/09/16 05:48:55;;;;;;;8.85;5.40;;;12.90;99.90;;;;;;4991434;28;20497;-71
2022/09/16 05:51:24;;;;;;;7.28;4.78;;;12.90;99.90;;;;;;4990376;28;20413;-71
2022/09/16 05:53:53;;;;;;;13.48;5.28;;;12.90;99.90;;;;;;5006506;28;20398;-71
2022/09/16 05:56:25;;;;;;;11.45;4.78;;;12.90;99.90;;;;;;4990348;28;20423;-71
2022/09/16 05:58:53;;;;;;;;;;;12.90;99.90;;;;;;4992180;28;20057;-72
2022/09/16 06:01:23;;;;;;;20.08;5.28;;;13.00;99.90;;;;;;4990491;28;20020;-71
2022/09/16 06:03:52;;;;;;;9.82;4.97;;;13.00;99.90;;;;;;4987332;28;20042;-71
2022/09/16 06:06:28;;;;;;;7.72;4.82;;;13.00;99.90;;;;;;4981931;28;20057;-72
2022/09/16 06:09:08;;;;;;;7.82;4.55;;;13.10;99.90;;;;;;4990886;28;20053;-71
2022/09/16 06:11:38;;;;;;;10.10;4.88;;;13.10;99.90;;;;;;5006311;28;20118;-70
2022/09/16 06:14:06;;;;;;;11.63;4.57;;;13.10;99.90;;;;;;4989050;28;20061;-70
2022/09/16 06:16:33;;;;;;;8.57;4.78;;;13.10;99.90;;;;;;4973939;28;20097;-70
2022/09/16 06:19:05;;;;;;;8.00;4.50;;;13.20;99.90;;;;;;4990583;28;20145;-71
2022/09/16 06:21:32;;;;;;;11.10;3.97;;;13.20;99.90;;;;;;4986351;28;20510;-71
2022/09/16 06:24:00;;;;;;;5.38;3.60;;;13.10;99.90;;;;;;5005506;28;20109;-70
2022/09/16 06:26:27;;;;;;;10.05;4.10;;;13.10;99.90;;;;;;5005200;28;20074;-71
2022/09/16 06:28:55;;;;;;;9.07;3.92;;;13.10;99.90;;;;;;4991538;28;20407;-71
2022/09/16 06:31:27;;;;;;;8.73;4.20;;;13.20;99.90;;;;;;4991145;28;20038;-71
2022/09/16 06:33:56;;;;;;;10.30;4.07;;;13.10;99.90;;;;;;4990456;28;20527;-71
2022/09/16 06:36:33;;;;;;;9.05;3.90;;;13.20;99.90;;;;;;4990808;28;20432;-70
2022/09/16 06:39:01;;;;;;;8.80;4.20;;;13.20;99.90;;;;;;4991451;28;20435;-71
2022/09/16 06:41:32;;;;;;;8.35;4.07;;;13.20;99.90;;;;;;4988355;28;20050;-71
2022/09/16 06:44:00;;;;;;;8.18;4.07;;;13.20;99.90;;;;;;4987468;28;20654;-70
2022/09/16 06:46:28;;;;;;;6.93;3.70;;;13.20;99.90;;;;;;4990324;28;20460;-69
2022/09/16 06:48:57;;;;;;;7.30;3.33;;;13.20;99.90;;;;;;4990308;28;20038;-70
2022/09/16 06:51:31;;;;;;;13.48;3.95;;;13.30;99.90;;;;;;4990498;28;20049;-71
2022/09/16 06:54:01;;;;;;;9.10;4.07;;;13.20;99.90;;;;;;4989436;28;20054;-69
2022/09/16 06:56:28;;;;;;;7.22;3.47;;;13.20;99.90;;;;;;4986487;28;20781;-70
2022/09/16 06:58:56;;;;;;;10.77;3.50;;;13.30;99.90;;;;;;4983162;28;20042;-70
2022/09/16 07:01:27;;;;;;;10.07;3.50;;;13.30;99.90;;;;;;4988912;28;20120;-72
2022/09/16 07:03:56;;;;;;;7.38;3.60;;;13.40;99.90;;;;;;4979039;28;20121;-71
2022/09/16 07:06:26;;;;;;;7.63;3.00;;;13.50;99.90;;;;;;4988884;28;20046;-69
2022/09/16 07:09:14;;;;;;;10.45;3.38;;;13.60;99.90;;;;;;4988351;28;20038;-71
2022/09/16 07:11:41;;;;;;;8.38;3.42;;;13.60;99.90;;;;;;4983952;28;20411;-69
2022/09/16 07:14:08;;;;;;;7.30;3.30;;;13.50;99.90;;;;;;4978356;28;20566;-70
2022/09/16 07:16:36;;;;;;;8.40;3.28;;;13.60;99.90;;;;;;4989067;28;20129;-70
2022/09/16 07:19:03;;;;;;;7.10;3.70;;;13.50;99.90;;;;;;4988129;28;20129;-70
2022/09/16 07:21:31;;;;;;;5.88;2.85;;;13.60;99.90;;;;;;4988553;28;20046;-70
2022/09/16 07:24:01;;;;;;;6.00;2.95;;;13.60;99.90;;;;;;4972096;28;20145;-70
2022/09/16 07:26:32;;;;;;;6.47;3.13;;;13.60;99.90;;;;;;4989513;28;20133;-70
2022/09/16 07:29:04;;;;;;;8.27;2.80;;;13.80;99.90;;;;;;4988202;28;20385;-70
2022/09/16 07:31:34;;;;;;;10.38;2.70;;;13.80;99.90;;;;;;4985151;28;20524;-70
2022/09/16 07:34:05;;;;;;;7.13;2.92;;;13.90;99.90;;;;;;4962190;28;20074;-70
2022/09/16 07:36:38;;;;;;;4.50;2.75;;;14.00;99.90;;;;;;4985001;28;20515;-70
2022/09/16 07:39:06;;;;;;;6.15;3.00;;;14.10;99.90;;;;;;4997449;28;20061;-69
2022/09/16 07:41:36;;;;;;;6.65;3.10;;;14.10;99.90;;;;;;4987713;28;20042;-69
2022/09/16 07:44:06;;;;;;;4.28;2.55;;;14.10;99.90;;;;;;4982159;28;20038;-69
2022/09/16 07:46:35;;;;;;;7.45;2.97;;;14.10;99.90;;;;;;4989326;28;20046;-70
2022/09/16 07:49:04;;;;;;;6.15;2.92;;;14.10;99.90;;;;;;4990283;28;20111;-69
2022/09/16 07:51:32;;;;;;;5.35;2.70;;;14.00;99.90;;;;;;4989096;28;20115;-70
2022/09/16 07:54:06;;;;;;;7.18;2.75;;;14.10;99.90;;;;;;4986431;28;20069;-69
2022/09/16 07:56:36;;;;;;;4.53;2.60;;;14.20;99.90;;;;;;4991812;28;20773;-69
2022/09/16 07:59:05;;;;;;;6.75;2.63;;;14.10;99.90;;;;;;4992361;28;20046;-69
2022/09/16 08:01:33;;;;;;;7.68;2.50;;;14.30;99.90;;;;;;4992424;28;20042;-71
2022/09/16 08:04:00;;;;;;;7.03;2.95;;;14.30;99.90;;;;;;4989208;28;20046;-71
2022/09/16 08:06:30;;;;;;;4.32;2.92;;;14.40;99.90;;;;;;4991457;28;20046;-69
2022/09/16 08:09:01;;;;;;;8.85;2.92;;;14.50;99.90;;;;;;4992328;28;20145;-69
2022/09/16 08:11:48;;;;;;;5.22;2.70;;;14.40;99.90;;;;;;4990928;28;20120;-71
2022/09/16 08:14:16;;;;;;;8.15;2.55;;;14.20;99.90;;;;;;4989434;28;20042;-70
2022/09/16 08:16:43;;;;;;;6.10;2.85;;;14.20;99.90;;;;;;5007282;28;20042;-71
2022/09/16 08:19:11;;;;;;;5.72;2.58;;;14.40;99.90;;;;;;4992769;28;20068;-70
2022/09/16 08:21:39;;;;;;;6.85;2.83;;;14.30;99.90;;;;;;4974367;28;20535;-69
2022/09/16 08:24:06;;;;;;;8.00;2.90;;;14.40;99.90;;;;;;5005563;28;20456;-69
2022/09/16 08:26:34;;;;;;;6.88;2.80;;;14.30;99.90;;;;;;4990867;28;20039;-69
2022/09/16 08:29:01;;;;;;;8.93;2.97;;;14.20;99.90;;;;;;4974793;28;20053;-69
2022/09/16 08:31:36;;;;;;;5.85;2.60;;;14.10;99.90;;;;;;4991485;28;20038;-70
2022/09/16 08:34:05;;;;;;;5.45;2.70;;;14.20;99.90;;;;;;4990443;28;20054;-70
2022/09/16 08:36:33;;;;;;;5.97;2.55;;;14.20;99.90;;;;;;4991652;28;20646;-69
2022/09/16 08:39:00;;;;;;;7.18;2.72;;;14.30;99.90;;;;;;4982101;28;20062;-69
2022/09/16 08:41:34;;;;;;;5.80;2.45;;;14.20;99.90;;;;;;5004026;28;20042;-71
2022/09/16 08:44:20;;;;;;;6.30;2.67;;;14.20;99.90;;;;;;4998352;28;20499;-70
2022/09/16 08:47:20;;;;;;;5.22;2.60;;;14.40;99.90;;;;;;4986980;28;20049;-70
2022/09/16 08:49:50;;;;;;;5.93;3.00;;;14.50;99.90;;;;;;4991678;28;20496;-70
2022/09/16 08:52:23;;;;;;;4.60;2.70;;;14.40;99.90;;;;;;4991269;28;20369;-69
2022/09/16 08:54:54;;;;;;;5.30;3.00;;;14.40;99.90;;;;;;4990550;28;20519;-69
2022/09/16 08:57:27;;;;;;;5.95;2.63;;;14.50;99.90;;;;;;4992552;28;20054;-70
2022/09/16 08:59:59;;;;;;;9.25;2.60;;;14.40;99.90;;;;;;4992600;28;20054;-69
2022/09/16 09:02:56;;;;;;;4.43;2.53;;;14.70;99.90;;;;;;5004456;28;20042;-70
2022/09/16 09:05:43;;;;;;;4.55;2.40;;;14.60;99.90;;;;;;4988887;28;20393;-70
2022/09/16 09:08:19;;;;;;;4.38;2.35;;;14.50;99.90;;;;;;4978730;28;20055;-69
2022/09/16 09:10:52;;;;;;;6.45;2.50;;;14.50;99.90;;;;;;4989129;28;20104;-70
2022/09/16 09:13:45;;;;;;;8.52;2.80;;;14.50;99.90;;;;;;4992443;28;20050;-69
2022/09/16 09:16:39;;;;;;;6.63;2.63;;;14.50;99.90;;;;;;4992966;28;20046;-73
2022/09/16 09:19:39;;;;;;;6.03;2.90;;;14.60;99.90;;;;;;4990915;28;20046;-68
2022/09/16 09:22:18;;;;;;;6.28;2.42;;;14.40;99.90;;;;;;4985841;28;20346;-69
2022/09/16 09:25:04;;;;;;;5.22;2.70;;;14.40;99.90;;;;;;4995304;28;20049;-69
2022/09/16 09:27:46;;;;;;;4.30;2.42;;;14.40;99.90;;;;;;4989430;28;20050;-69
2022/09/16 09:30:24;;;;;;;;;;;14.50;99.90;;;;;;4998949;28;20457;-69
2022/09/16 09:33:01;;;;;;;9.77;3.28;;;14.60;99.90;;;;;;4987058;28;19932;-69
2022/09/16 09:35:54;;;;;;;5.47;2.78;;;14.60;99.90;;;;;;4982066;28;20050;-69
2022/09/16 09:38:33;;;;;;;8.10;3.40;;;14.60;99.90;;;;;;4989659;28;20054;-69
2022/09/16 09:41:35;;;;;;;4.97;3.05;;;14.70;99.90;;;;;;4971395;28;20104;-70
2022/09/16 09:44:27;;;;;;;7.05;3.03;;;14.70;99.90;;;;;;4985248;28;20042;-70
2022/09/16 09:46:59;;;;;;;5.95;2.83;;;14.60;99.90;;;;;;4989208;28;20050;-70
2022/09/16 09:49:45;;;;;;;8.75;2.63;;;14.60;99.90;;;;;;4990265;28;20038;-70
2022/09/16 09:52:18;;;;;;;5.13;2.63;;;14.50;99.90;;;;;;4978787;28;20469;-70
2022/09/16 09:54:49;;;;;;;4.40;2.75;;;14.50;99.90;;;;;;4988256;28;20137;-70
2022/09/16 09:58:13;;;;;;;4.75;2.60;;;14.60;99.90;;;;;;5005298;28;20054;-70
2022/09/16 10:00:40;;;;;;;5.57;2.95;;;14.70;99.90;;;;;;4974086;28;20439;-71
2022/09/16 10:03:13;;;;;;;6.28;3.08;;;14.80;99.90;;;;;;4962992;28;20513;-70
2022/09/16 10:05:42;;;;;;;4.90;2.92;;;14.90;99.90;;;;;;4987409;28;20498;-70
2022/09/16 10:08:16;;;;;;;5.65;3.10;;;15.10;99.90;;;;;;4990534;28;20124;-70
2022/09/16 10:10:53;;;;;;;7.25;3.15;;;15.10;99.90;;;;;;5000424;28;20045;-70
2022/09/16 10:13:24;;;;;;;7.85;3.33;;;15.40;99.90;;;;;;4988130;28;20043;-69
2022/09/16 10:16:09;;;;;;;6.50;3.22;;;15.80;99.90;;;;;;4997326;28;20049;-70
2022/09/16 10:18:37;;;;;;;5.93;3.17;;;15.90;99.90;;;;;;4990375;28;20073;-70
2022/09/16 10:21:11;;;;;;;5.10;3.10;;;15.90;99.90;;;;;;4989494;28;20042;-70
2022/09/16 10:23:39;;;;;;;6.20;2.97;;;16.10;99.90;;;;;;4991690;28;20066;-70
2022/09/16 10:26:09;;;;;;;7.75;3.28;;;16.40;99.90;;;;;;4986093;28;20467;-71
2022/09/16 10:28:37;;;;;;;7.35;3.38;;;16.30;99.90;;;;;;4992293;28;20526;-72
2022/09/16 10:31:06;;;;;;;5.68;3.30;;;16.30;99.90;;;;;;4992261;28;20042;-69
2022/09/16 10:33:39;;;;;;;6.40;3.60;;;16.10;99.90;;;;;;4988252;28;20484;-69
2022/09/16 10:36:10;;;;;;;8.82;3.63;;;16.00;99.90;;;;;;4986548;28;20050;-70
2022/09/16 10:38:43;;;;;;;5.20;3.20;;;16.10;99.90;;;;;;4986378;28;20133;-69
2022/09/16 10:41:46;;;;;;;5.20;3.40;;;16.20;99.90;;;;;;5001221;28;20043;-69
2022/09/16 10:44:26;;;;;;;4.95;3.38;;;16.30;99.90;;;;;;4988803;28;20046;-69
2022/09/16 10:47:02;;;;;;;5.53;3.80;;;16.20;99.90;;;;;;4990318;28;20462;-69
2022/09/16 10:49:42;;;;;;;6.20;3.80;;;16.00;99.90;;;;;;4989579;28;20051;-69
2022/09/16 10:52:26;;;;;;;5.68;3.55;;;15.90;99.90;;;;;;4978662;28;20039;-70
2022/09/16 10:54:54;;;;;;;4.75;3.30;;;15.90;99.90;;;;;;4986457;28;20404;-68
2022/09/16 10:57:28;;;;;;;5.60;3.45;;;15.80;99.90;;;;;;4989613;28;20489;-69
2022/09/16 11:00:14;;;;;;;6.43;3.63;;;15.60;99.90;;;;;;4990410;28;20035;-69
2022/09/16 11:03:16;;;;;;;8.25;3.97;;;15.70;99.90;;;;;;4988716;28;20050;-70
2022/09/16 11:06:17;;;;;;;5.70;3.70;;;15.40;99.90;;;;;;4989027;28;20034;-69
2022/09/16 11:09:07;;;;;;;10.18;3.65;;;15.40;99.90;;;;;;4991053;28;20125;-70
2022/09/16 11:11:53;;;;;;;6.13;3.42;;;15.30;99.90;;;;;;4989959;28;20065;-70
2022/09/16 11:14:29;;;;;;;6.53;3.30;;;15.10;99.90;;;;;;4983133;28;20104;-70
2022/09/16 11:17:23;;;;;;;8.75;3.83;;;15.10;99.90;;;;;;4985990;28;20049;-69
2022/09/16 11:19:54;;;;;;;7.40;3.67;;;15.00;99.90;;;;;;4990241;28;20465;-69
2022/09/16 11:22:52;;;;;;;5.38;3.20;;;14.90;99.90;;;;;;4983463;28;20046;-69
2022/09/16 11:25:29;;;;;;;6.97;3.45;;;14.80;99.90;;;;;;4982663;28;20050;-69
2022/09/16 11:27:59;;;;;;;8.82;3.50;;;14.80;99.90;;;;;;4987339;28;20156;-69
2022/09/16 11:30:29;;;;;;;7.10;3.72;;;14.90;99.90;;;;;;4990661;28;20092;-70
2022/09/16 11:33:04;;;;;;;8.43;3.40;;;15.00;99.90;;;;;;4990878;28;20042;-70
2022/09/16 11:35:59;;;;;;;6.03;3.65;;;15.10;99.90;;;;;;4988289;28;20042;-70
2022/09/16 11:38:37;;;;;;;7.40;3.40;;;15.30;99.90;;;;;;4990617;28;20386;-70
2022/09/16 11:41:29;;;;;;;8.23;3.50;;;15.60;99.90;;;;;;4986435;28;20481;-70
2022/09/16 11:44:22;;;;;;;7.97;3.58;;;15.60;99.90;;;;;;5009164;28;20046;-70
2022/09/16 11:47:11;;;;;;;7.03;3.88;;;15.90;99.90;;;;;;4992128;28;20631;-69
2022/09/16 11:49:38;;;;;;;4.32;3.40;;;16.00;99.90;;;;;;4994405;28;20057;-70
2022/09/16 11:52:05;;;;;;;7.53;3.67;;;15.90;99.90;;;;;;4992904;28;20118;-68
2022/09/16 11:54:53;;;;;;;6.50;3.58;;;15.90;99.90;;;;;;4989760;28;20078;-69
2022/09/16 11:57:26;;;;;;;6.70;3.20;;;15.80;99.90;;;;;;4982582;28;20116;-68
2022/09/16 11:59:59;;;;;;;6.80;3.60;;;15.90;99.90;;;;;;4991490;28;20061;-68
2022/09/16 12:02:29;;;;;;;6.10;3.50;;;16.40;99.90;;;;;;4990501;28;20528;-70
2022/09/16 12:05:12;;;;;;;6.60;3.42;;;16.90;99.90;;;;;;4990147;28;20499;-70
2022/09/16 12:08:21;;;;;;;7.00;3.83;;;17.40;99.90;;;;;;5005726;28;20076;-69
2022/09/16 12:10:54;;;;;;;5.75;3.60;;;17.30;99.90;;;;;;4985690;28;20069;-71
2022/09/16 12:13:54;;;;;;;6.57;3.70;;;16.90;99.90;;;;;;4986474;28;20050;-70
2022/09/16 12:16:47;;;;;;;7.60;3.83;;;17.30;99.90;;;;;;4980690;28;20563;-71
2022/09/16 12:19:43;;;;;;;8.73;3.75;;;17.50;99.90;;;;;;4984884;28;20449;-70
2022/09/16 12:22:19;;;;;;;7.72;3.60;;;17.70;99.90;;;;;;4983939;28;20472;-71
2022/09/16 12:24:52;;;;;;;6.80;4.10;;;17.80;99.90;;;;;;4980323;28;20038;-70
2022/09/16 12:27:49;;;;;;;6.07;3.60;;;17.60;99.90;;;;;;4983273;28;20539;-70
2022/09/16 12:30:24;;;;;;;8.43;3.80;;;18.00;99.90;;;;;;5000440;28;20046;-70
2022/09/16 12:33:02;;;;;;;5.95;3.78;;;18.10;99.90;;;;;;4991971;28;20448;-71
2022/09/16 12:36:01;;;;;;;5.93;3.85;;;17.70;99.90;;;;;;4982316;28;20282;-71
2022/09/16 12:38:28;;;;;;;5.30;3.97;;;17.50;99.90;;;;;;4975758;28;20500;-69
2022/09/16 12:41:20;;;;;;;5.40;3.75;;;17.20;99.90;;;;;;4991371;28;20516;-70
2022/09/16 12:43:59;;;;;;;5.22;3.88;;;17.20;99.90;;;;;;4993045;28;20125;-69
2022/09/16 12:47:54;;;;;;;6.95;4.05;;;17.20;99.90;;;;;;4991894;28;20093;-69
2022/09/16 12:50:42;;;;;;;5.78;4.00;;;17.10;99.90;;;;;;4856568;29;20140;-70
2022/09/16 12:53:40;;;;;;;10.40;4.57;;;16.90;99.90;;;;;;4855069;29;20052;-70
2022/09/16 12:56:45;;;;;;;8.73;4.57;;;16.50;99.90;;;;;;4857911;29;20907;-70
2022/09/16 12:59:39;;;;;;;7.15;4.22;;;16.90;99.90;;;;;;4856382;29;20520;-70
2022/09/16 13:02:25;;;;;;;7.63;4.68;;;17.50;99.90;;;;;;4845872;29;20045;-71
2022/09/16 13:04:57;;;;;;;6.22;4.10;;;19.00;99.90;;;;;;4857866;29;20508;-70
2022/09/16 13:07:32;;;;;;;8.68;4.63;;;19.20;99.90;;;;;;4855024;29;20655;-70
2022/09/16 13:10:39;;;;;;;6.93;4.30;;;19.90;99.90;;;;;;4827334;29;20536;-69
2022/09/16 13:13:34;;;;;;;7.90;4.35;;;19.80;99.90;;;;;;4838808;29;20041;-69
2022/09/16 13:16:05;;;;;;;8.05;4.50;;;19.40;99.90;;;;;;4856602;29;20061;-70
2022/09/16 13:18:44;;;;;;;9.93;4.10;;;19.40;99.90;;;;;;4857453;29;20049;-69
2022/09/16 13:21:26;;;;;;;7.45;4.35;;;21.80;99.90;;;;;;4890894;29;20116;-69
2022/09/16 13:24:02;;;;;;;;;;;21.50;99.90;;;;;;4929244;29;20684;-69
2022/09/16 13:26:46;;;;;;;6.10;4.80;;;21.30;99.90;;;;;;4955499;28;19925;-68
2022/09/16 13:29:43;;;;;;;6.93;4.72;;;22.40;99.90;;;;;;4990234;28;20042;-69